ENEV/EVE METAR and TAF weather

Enter ICAO airport designator
Station Type Date Time Source
ENEV METAR 2018/12/10 23:50 UTC NOAA

ENEV 102350Z AUTO VRB03KT 9999 FEW061/// SCT130/// M06/M07 Q1018 RMK WIND 1400FT 02008KT


Station Type Date Time Source
ENEV Decoded METAR 2018/12/10 23:50 UTC NOAA

Evenes, Norway (ENEV) 68-31N 016-41E 26M
Dec 10, 2018 - 06:50 PM EST / 2018.12.10 2350 UTC
Wind: Variable at 3 MPH (3 KT):0
Visibility: greater than 7 mile(s):0
Sky conditions: partly cloudy
Temperature: 21 F (-6 C)
Dew Point: 19 F (-7 C)
Relative Humidity: 92%
Pressure (altimeter): 30.06 in. Hg (1018 hPa)
ob: ENEV 102350Z AUTO VRB03KT 9999 FEW061/// SCT130/// M06/M07 Q1018 RMK WIND 1400FT 02008KT
cycle: 0

Station Type Date Time Source
ENEV TAF 2010/02/05 07:50 UTC NOAA

METAR ENEV 050750Z 14007KT 9999 FEW040 SCT055 M04/M09 Q1019


Example: see airport list